createdAt,value
2022-10-22T00:00:32.327Z,11.90
2022-10-22T00:02:59.353Z,11.90
2022-10-22T00:05:27.298Z,11.90
2022-10-22T00:07:53.907Z,11.90
2022-10-22T00:10:20.923Z,11.80
2022-10-22T00:12:47.562Z,11.80
2022-10-22T00:15:14.209Z,11.80
2022-10-22T00:17:41.359Z,11.80
2022-10-22T00:20:10.110Z,11.70
2022-10-22T00:22:36.738Z,11.70
2022-10-22T00:25:04.334Z,11.70
2022-10-22T00:27:31.202Z,11.80
2022-10-22T00:29:57.828Z,11.70
2022-10-22T00:32:24.721Z,11.70
2022-10-22T00:34:51.368Z,11.70
2022-10-22T00:37:18.002Z,11.70
2022-10-22T00:39:44.914Z,11.70
2022-10-22T00:42:22.785Z,11.70
2022-10-22T00:45:11.749Z,11.70
2022-10-22T00:47:47.037Z,11.70
2022-10-22T00:50:29.756Z,11.70
2022-10-22T00:53:00.218Z,11.70
2022-10-22T00:55:34.099Z,11.70
2022-10-22T00:58:02.486Z,11.70
2022-10-22T01:00:29.798Z,11.70
2022-10-22T01:02:58.336Z,11.80
2022-10-22T01:05:29.530Z,11.80
2022-10-22T01:07:56.977Z,11.70
2022-10-22T01:10:42.995Z,11.70
2022-10-22T01:13:36.751Z,11.70
2022-10-22T01:16:41.363Z,11.70
2022-10-22T01:19:42.602Z,11.70
2022-10-22T01:22:24.021Z,11.70
2022-10-22T01:24:59.358Z,11.70
2022-10-22T01:27:38.907Z,11.70
2022-10-22T01:30:08.344Z,11.70
2022-10-22T01:32:45.940Z,11.70
2022-10-22T01:35:17.762Z,11.60
2022-10-22T01:37:52.868Z,11.70
2022-10-22T01:40:21.634Z,11.70
2022-10-22T01:43:03.814Z,11.70
2022-10-22T01:45:36.743Z,11.70
2022-10-22T01:48:35.047Z,11.80
2022-10-22T01:51:04.785Z,11.70
2022-10-22T01:53:37.553Z,11.70
2022-10-22T01:56:23.342Z,11.70
2022-10-22T01:59:14.902Z,11.70
2022-10-22T02:01:53.679Z,11.70
2022-10-22T02:04:30.194Z,11.70
2022-10-22T02:07:03.388Z,11.60
2022-10-22T02:09:32.068Z,11.60
2022-10-22T02:12:09.254Z,11.60
2022-10-22T02:14:39.644Z,11.60
2022-10-22T02:17:11.005Z,11.60
2022-10-22T02:19:59.070Z,11.60
2022-10-22T02:22:27.598Z,11.60
2022-10-22T02:24:54.667Z,11.60
2022-10-22T02:27:26.058Z,11.60
2022-10-22T02:29:59.171Z,11.60
2022-10-22T02:32:30.283Z,11.60
2022-10-22T02:35:01.619Z,11.50
2022-10-22T02:37:28.659Z,11.60
2022-10-22T02:39:56.326Z,11.50
2022-10-22T02:42:28.455Z,11.60
2022-10-22T02:44:55.174Z,11.60
2022-10-22T02:47:22.089Z,11.60
2022-10-22T02:49:48.803Z,11.70
2022-10-22T02:52:15.438Z,11.80
2022-10-22T02:54:42.356Z,11.80
2022-10-22T02:57:09.111Z,11.80
2022-10-22T02:59:35.791Z,11.80
2022-10-22T03:02:05.842Z,11.70
2022-10-22T03:04:32.488Z,11.70
2022-10-22T03:06:59.436Z,11.60
2022-10-22T03:09:26.118Z,11.60
2022-10-22T03:11:53.193Z,11.60
2022-10-22T03:14:19.937Z,11.50
2022-10-22T03:16:46.856Z,11.60
2022-10-22T03:19:13.550Z,11.60
2022-10-22T03:21:50.330Z,11.60
2022-10-22T03:24:29.340Z,11.70
2022-10-22T03:26:56.664Z,11.70
2022-10-22T03:29:26.258Z,11.80
2022-10-22T03:31:53.915Z,11.80
2022-10-22T03:34:21.342Z,11.80
2022-10-22T03:36:49.761Z,11.80
2022-10-22T03:39:18.466Z,11.80
2022-10-22T03:41:48.896Z,11.70
2022-10-22T03:44:17.861Z,11.70
2022-10-22T03:46:45.178Z,11.70
2022-10-22T03:49:11.820Z,11.60
2022-10-22T03:51:38.463Z,11.60
2022-10-22T03:54:05.407Z,11.60
2022-10-22T03:56:32.335Z,11.50
2022-10-22T03:59:01.192Z,11.50
2022-10-22T04:01:29.986Z,11.60
2022-10-22T04:03:57.446Z,11.60
2022-10-22T04:06:25.528Z,11.60
2022-10-22T04:08:52.216Z,11.60
2022-10-22T04:11:18.936Z,11.60
2022-10-22T04:13:46.016Z,11.60
2022-10-22T04:16:19.497Z,11.70
2022-10-22T04:18:48.064Z,11.60
2022-10-22T04:21:17.391Z,11.60
2022-10-22T04:23:49.583Z,11.70
2022-10-22T04:26:17.390Z,11.60
2022-10-22T04:28:45.216Z,11.60
2022-10-22T04:31:17.378Z,11.60
2022-10-22T04:33:44.202Z,11.70
2022-10-22T04:36:12.710Z,11.80
2022-10-22T04:38:41.089Z,11.80
2022-10-22T04:41:17.874Z,11.80
2022-10-22T04:43:45.127Z,11.80
2022-10-22T04:46:13.183Z,11.80
2022-10-22T04:48:41.806Z,11.70
2022-10-22T04:51:11.226Z,11.80
2022-10-22T04:53:38.294Z,11.70
2022-10-22T04:56:21.200Z,11.70
2022-10-22T04:58:50.032Z,11.80
2022-10-22T05:01:20.207Z,11.80
2022-10-22T05:03:49.290Z,11.80
2022-10-22T05:06:16.852Z,11.70
2022-10-22T05:08:44.067Z,11.70
2022-10-22T05:11:15.802Z,11.60
2022-10-22T05:13:42.421Z,11.60
2022-10-22T05:16:09.847Z,11.60
2022-10-22T05:18:42.191Z,11.50
2022-10-22T05:21:14.338Z,11.50
2022-10-22T05:23:41.740Z,11.50
2022-10-22T05:26:10.319Z,11.50
2022-10-22T05:28:37.337Z,11.40
2022-10-22T05:31:06.930Z,11.40
2022-10-22T05:33:34.416Z,11.30
2022-10-22T05:36:03.141Z,11.30
2022-10-22T05:38:30.064Z,11.30
2022-10-22T05:41:11.022Z,11.30
2022-10-22T05:43:37.970Z,11.30
2022-10-22T05:46:10.579Z,11.30
2022-10-22T05:48:37.744Z,11.30
2022-10-22T05:51:10.450Z,11.20
2022-10-22T05:53:39.815Z,11.20
2022-10-22T05:56:09.362Z,11.10
2022-10-22T05:58:37.019Z,11.10
2022-10-22T06:01:05.824Z,11.10
2022-10-22T06:03:34.177Z,11.10
2022-10-22T06:06:03.165Z,11.10
2022-10-22T06:08:30.640Z,11.10
2022-10-22T06:10:57.763Z,11.10
2022-10-22T06:13:24.427Z,11.20
2022-10-22T06:15:53.665Z,11.20
2022-10-22T06:18:20.718Z,11.20
2022-10-22T06:20:47.662Z,11.20
2022-10-22T06:23:15.582Z,11.20
2022-10-22T06:25:43.624Z,11.30
2022-10-22T06:28:10.462Z,11.30
2022-10-22T06:30:42.882Z,11.30
2022-10-22T06:33:12.852Z,11.30
2022-10-22T06:35:41.287Z,11.40
2022-10-22T06:38:07.915Z,11.40
2022-10-22T06:40:38.953Z,11.50
2022-10-22T06:43:06.326Z,11.50
2022-10-22T06:45:33.016Z,11.50
2022-10-22T06:47:59.647Z,11.50
2022-10-22T06:50:26.381Z,11.50
2022-10-22T06:52:53.136Z,11.60
2022-10-22T06:55:19.782Z,11.50
2022-10-22T06:57:48.449Z,11.60
2022-10-22T07:00:15.238Z,11.60
2022-10-22T07:02:42.170Z,11.60
2022-10-22T07:05:09.484Z,11.60
2022-10-22T07:07:36.128Z,11.60
2022-10-22T07:10:03.050Z,11.60
2022-10-22T07:12:29.668Z,11.60
2022-10-22T07:14:56.804Z,11.60
2022-10-22T07:17:23.472Z,11.70
2022-10-22T07:19:51.326Z,11.70
2022-10-22T07:22:19.912Z,11.70
2022-10-22T07:24:46.579Z,11.80
2022-10-22T07:27:13.512Z,11.80
2022-10-22T07:29:40.184Z,11.80
2022-10-22T07:32:07.197Z,11.80
2022-10-22T07:34:33.901Z,11.90
2022-10-22T07:37:00.803Z,11.80
2022-10-22T07:39:28.513Z,11.80
2022-10-22T07:41:55.201Z,11.70
2022-10-22T07:44:22.118Z,11.70
2022-10-22T07:46:49.094Z,11.70
2022-10-22T07:49:16.103Z,11.70
2022-10-22T07:51:42.824Z,11.80
2022-10-22T07:54:09.479Z,11.80
2022-10-22T07:56:36.360Z,11.80
2022-10-22T08:01:34.558Z,11.80
2022-10-22T08:04:03.350Z,11.80
2022-10-22T08:06:30.203Z,11.80
2022-10-22T08:08:56.883Z,11.90
2022-10-22T08:11:23.820Z,11.90
2022-10-22T08:13:50.476Z,11.90
2022-10-22T08:16:17.208Z,11.90
2022-10-22T08:18:44.223Z,12.00
2022-10-22T08:21:12.754Z,12.00
2022-10-22T08:23:39.449Z,11.90
2022-10-22T08:26:06.402Z,11.90
2022-10-22T08:28:36.877Z,12.00
2022-10-22T08:31:08.994Z,12.00
2022-10-22T08:33:36.351Z,12.10
2022-10-22T08:36:03.332Z,12.20
2022-10-22T08:38:31.441Z,12.30
2022-10-22T08:41:08.891Z,12.40
2022-10-22T08:43:56.664Z,12.40
2022-10-22T08:46:35.511Z,12.50
2022-10-22T08:49:04.583Z,12.50
2022-10-22T08:51:40.414Z,12.60
2022-10-22T08:54:28.750Z,12.70
2022-10-22T08:57:18.914Z,12.70
2022-10-22T08:59:47.111Z,12.70
2022-10-22T09:02:44.965Z,12.80
2022-10-22T09:05:42.550Z,13.00
2022-10-22T09:08:12.671Z,13.30
2022-10-22T09:10:46.207Z,13.40
2022-10-22T09:13:18.260Z,13.40
2022-10-22T09:15:50.564Z,13.40
2022-10-22T09:18:33.064Z,13.50
2022-10-22T09:21:37.161Z,13.60
2022-10-22T09:24:11.901Z,13.50
2022-10-22T09:26:41.200Z,13.40
2022-10-22T09:29:15.544Z,13.30
2022-10-22T09:31:42.378Z,13.30
2022-10-22T09:34:09.068Z,13.40
2022-10-22T09:36:39.547Z,13.10
2022-10-22T09:39:26.313Z,13.10
2022-10-22T09:41:53.281Z,13.10
2022-10-22T09:44:21.173Z,13.30
2022-10-22T09:46:48.298Z,13.20
2022-10-22T09:49:18.337Z,13.20
2022-10-22T09:51:55.800Z,13.40
2022-10-22T09:54:25.855Z,13.40
2022-10-22T09:57:14.775Z,13.40
2022-10-22T09:59:43.515Z,13.60
2022-10-22T10:02:37.626Z,13.90
2022-10-22T10:05:04.998Z,13.90
2022-10-22T10:07:34.235Z,14.10
2022-10-22T10:10:01.188Z,13.90
2022-10-22T10:12:53.707Z,14.00
2022-10-22T10:15:34.280Z,13.90
2022-10-22T10:18:01.123Z,13.90
2022-10-22T10:20:36.706Z,13.90
2022-10-22T10:23:27.603Z,13.90
2022-10-22T10:26:04.711Z,14.00
2022-10-22T10:28:53.442Z,14.10
2022-10-22T10:31:52.759Z,14.00
2022-10-22T10:34:57.148Z,14.10
2022-10-22T10:37:35.072Z,14.30
2022-10-22T10:40:07.745Z,14.30
2022-10-22T10:42:45.986Z,14.30
2022-10-22T10:45:19.843Z,14.40
2022-10-22T10:48:02.290Z,14.30
2022-10-22T10:51:03.196Z,14.20
2022-10-22T10:53:52.154Z,14.30
2022-10-22T10:56:39.472Z,14.30
2022-10-22T10:59:21.536Z,14.30
2022-10-22T11:01:54.286Z,14.50
2022-10-22T11:04:39.657Z,14.60
2022-10-22T11:07:30.052Z,14.70
2022-10-22T11:10:16.956Z,14.50
2022-10-22T11:12:49.211Z,14.40
2022-10-22T11:15:29.832Z,14.50
2022-10-22T11:18:16.721Z,14.80
2022-10-22T11:21:04.479Z,15.10
2022-10-22T11:23:36.674Z,15.10
2022-10-22T11:26:07.932Z,15.00
2022-10-22T11:28:41.527Z,15.00
2022-10-22T11:31:18.106Z,15.00
2022-10-22T11:34:00.476Z,14.90
2022-10-22T11:36:41.574Z,14.70
2022-10-22T11:39:52.746Z,14.70
2022-10-22T11:42:32.590Z,14.60
2022-10-22T11:45:00.361Z,14.90
2022-10-22T11:47:48.991Z,14.90
2022-10-22T11:50:44.967Z,14.70
2022-10-22T11:53:14.861Z,14.40
2022-10-22T11:55:51.597Z,14.20
2022-10-22T11:58:39.520Z,14.10
2022-10-22T12:01:09.579Z,14.40
2022-10-22T12:03:46.540Z,14.50
2022-10-22T12:06:13.434Z,14.60
2022-10-22T12:08:50.434Z,14.80
2022-10-22T12:11:56.398Z,14.70
2022-10-22T12:14:54.551Z,14.50
2022-10-22T12:17:22.317Z,14.30
2022-10-22T12:20:03.386Z,14.10
2022-10-22T12:22:33.097Z,14.10
2022-10-22T12:25:10.373Z,14.00
2022-10-22T12:27:41.579Z,13.90
2022-10-22T12:30:35.163Z,13.90
2022-10-22T12:33:05.000Z,13.80
2022-10-22T12:35:43.080Z,13.80
2022-10-22T12:38:16.619Z,14.20
2022-10-22T12:40:47.478Z,14.60
2022-10-22T12:43:24.349Z,14.70
2022-10-22T12:45:51.746Z,14.80
2022-10-22T12:48:34.668Z,14.60
2022-10-22T12:51:04.656Z,14.50
2022-10-22T12:53:38.367Z,14.40
2022-10-22T12:56:13.885Z,14.50
2022-10-22T12:58:53.286Z,14.70
2022-10-22T13:01:20.161Z,14.60
2022-10-22T13:03:51.026Z,14.40
2022-10-22T13:06:21.055Z,14.30
2022-10-22T13:09:17.178Z,14.50
2022-10-22T13:12:04.882Z,14.70
2022-10-22T13:14:32.583Z,14.60
2022-10-22T13:17:08.721Z,14.50
2022-10-22T13:19:53.601Z,14.60
2022-10-22T13:22:39.642Z,14.60
2022-10-22T13:25:16.281Z,14.70
2022-10-22T13:28:02.663Z,14.70
2022-10-22T13:30:35.353Z,14.70
2022-10-22T13:33:23.340Z,14.70
2022-10-22T13:35:50.318Z,14.80
2022-10-22T13:38:20.576Z,15.00
2022-10-22T13:40:48.895Z,15.20
2022-10-22T13:43:16.897Z,15.40
2022-10-22T13:45:46.959Z,15.60
2022-10-22T13:48:20.163Z,15.90
2022-10-22T13:50:46.825Z,15.90
2022-10-22T13:53:22.949Z,15.90
2022-10-22T13:55:50.277Z,15.80
2022-10-22T13:58:20.350Z,15.50
2022-10-22T14:00:50.343Z,15.20
2022-10-22T14:03:21.592Z,15.00
2022-10-22T14:05:49.361Z,14.70
2022-10-22T14:08:20.587Z,14.40
2022-10-22T14:10:48.186Z,14.20
2022-10-22T14:13:16.784Z,14.10
2022-10-22T14:15:45.925Z,14.10
2022-10-22T14:18:19.607Z,14.10
2022-10-22T14:20:46.251Z,14.20
2022-10-22T14:23:22.368Z,14.20
2022-10-22T14:25:52.186Z,14.20
2022-10-22T14:28:19.439Z,14.20
2022-10-22T14:30:46.653Z,14.20
2022-10-22T14:33:20.586Z,14.10
2022-10-22T14:35:51.286Z,14.10
2022-10-22T14:38:17.981Z,14.00
2022-10-22T14:40:47.838Z,14.00
2022-10-22T14:43:21.433Z,14.00
2022-10-22T14:45:48.220Z,14.10
2022-10-22T14:48:16.124Z,14.20
2022-10-22T14:51:03.050Z,14.20
2022-10-22T14:53:29.694Z,14.20
2022-10-22T14:55:59.857Z,14.20
2022-10-22T14:58:26.793Z,14.20
2022-10-22T15:00:53.730Z,14.10
2022-10-22T15:03:20.499Z,14.10
2022-10-22T15:05:53.986Z,14.10
2022-10-22T15:08:21.277Z,14.00
2022-10-22T15:10:59.113Z,14.00
2022-10-22T15:13:29.091Z,14.00
2022-10-22T15:15:56.700Z,13.90
2022-10-22T15:18:24.498Z,13.80
2022-10-22T15:21:14.463Z,13.70
2022-10-22T15:23:41.231Z,13.50
2022-10-22T15:26:08.831Z,13.40
2022-10-22T15:28:37.083Z,13.20
2022-10-22T15:31:04.281Z,13.10
2022-10-22T15:33:30.980Z,13.00
2022-10-22T15:35:58.118Z,12.90
2022-10-22T15:41:05.776Z,12.60
2022-10-22T15:43:33.522Z,12.40
2022-10-22T15:46:13.679Z,12.30
2022-10-22T15:48:46.948Z,12.20
2022-10-22T15:51:19.554Z,12.10
2022-10-22T15:53:54.714Z,12.00
2022-10-22T15:56:24.164Z,11.90
2022-10-22T15:58:59.612Z,11.80
2022-10-22T16:01:27.251Z,11.70
2022-10-22T16:04:00.280Z,11.60
2022-10-22T16:06:32.990Z,11.40
2022-10-22T16:09:05.618Z,11.20
2022-10-22T16:11:33.399Z,11.20
2022-10-22T16:14:01.240Z,11.00
2022-10-22T16:16:32.218Z,10.90
2022-10-22T16:18:58.845Z,10.80
2022-10-22T16:21:26.733Z,10.70
2022-10-22T16:23:53.430Z,10.60
2022-10-22T16:26:20.749Z,10.60
2022-10-22T16:28:48.820Z,10.50
2022-10-22T16:31:18.002Z,10.50
2022-10-22T16:33:47.901Z,10.50
2022-10-22T16:36:19.445Z,10.60
2022-10-22T16:38:47.330Z,10.60
2022-10-22T16:41:19.647Z,10.60
2022-10-22T16:43:51.338Z,10.60
2022-10-22T16:46:19.818Z,10.60
2022-10-22T16:48:52.622Z,10.70
2022-10-22T16:51:22.460Z,10.70
2022-10-22T16:53:53.406Z,10.60
2022-10-22T16:56:20.452Z,10.50
2022-10-22T16:58:55.731Z,10.50
2022-10-22T17:01:26.773Z,10.30
2022-10-22T17:03:56.782Z,10.20
2022-10-22T17:06:25.669Z,10.10
2022-10-22T17:08:52.755Z,10.10
2022-10-22T17:11:23.951Z,10.00
2022-10-22T17:13:54.439Z,10.00
2022-10-22T17:16:24.091Z,9.90
2022-10-22T17:18:53.798Z,9.80
2022-10-22T17:21:21.378Z,9.80
2022-10-22T17:23:48.541Z,9.70
2022-10-22T17:26:22.662Z,9.70
2022-10-22T17:28:51.104Z,9.80
2022-10-22T17:31:36.274Z,9.80
2022-10-22T17:34:04.647Z,9.80
2022-10-22T17:36:35.025Z,9.90
2022-10-22T17:39:05.767Z,9.90
2022-10-22T17:41:35.529Z,10.00
2022-10-22T17:44:04.598Z,10.00
2022-10-22T17:46:32.783Z,10.10
2022-10-22T17:49:02.468Z,10.10
2022-10-22T17:51:30.408Z,10.00
2022-10-22T17:53:57.229Z,10.00
2022-10-22T17:56:26.754Z,9.90
2022-10-22T17:58:54.593Z,9.80
2022-10-22T18:01:27.606Z,9.70
2022-10-22T18:03:55.804Z,9.60
2022-10-22T18:06:23.132Z,9.60
2022-10-22T18:08:50.240Z,9.50
2022-10-22T18:11:21.269Z,9.40
2022-10-22T18:13:53.234Z,9.40
2022-10-22T18:16:20.223Z,9.50
2022-10-22T18:18:53.256Z,9.50
2022-10-22T18:21:21.823Z,9.60
2022-10-22T18:23:48.996Z,9.60
2022-10-22T18:26:18.456Z,9.50
2022-10-22T18:28:49.198Z,9.50
2022-10-22T18:31:22.391Z,9.40
2022-10-22T18:33:49.877Z,9.30
2022-10-22T18:36:21.915Z,9.30
2022-10-22T18:39:00.415Z,9.20
2022-10-22T18:41:30.880Z,9.10
2022-10-22T18:44:01.071Z,9.00
2022-10-22T18:46:29.418Z,8.90
2022-10-22T18:48:57.569Z,8.80
2022-10-22T18:51:26.454Z,8.70
2022-10-22T18:54:05.327Z,8.60
2022-10-22T18:56:32.425Z,8.60
2022-10-22T18:59:01.444Z,8.50
2022-10-22T19:01:31.530Z,8.30
2022-10-22T19:03:58.319Z,8.20
2022-10-22T19:06:34.554Z,8.20
2022-10-22T19:09:04.818Z,8.10
2022-10-22T19:11:32.622Z,8.00
2022-10-22T19:13:59.377Z,8.00
2022-10-22T19:16:27.724Z,7.90
2022-10-22T19:19:02.404Z,7.90
2022-10-22T19:21:29.958Z,7.80
2022-10-22T19:23:58.595Z,7.80
2022-10-22T19:26:26.561Z,7.70
2022-10-22T19:28:57.993Z,7.70
2022-10-22T19:31:26.607Z,7.70
2022-10-22T19:33:55.627Z,7.60
2022-10-22T19:36:27.671Z,7.70
2022-10-22T19:38:55.040Z,7.80
2022-10-22T19:41:25.468Z,7.80
2022-10-22T19:43:55.562Z,7.80
2022-10-22T19:46:24.059Z,7.80
2022-10-22T19:48:52.690Z,7.80
2022-10-22T19:51:22.267Z,7.80
2022-10-22T19:53:50.225Z,7.80
2022-10-22T19:56:21.831Z,7.80
2022-10-22T19:58:48.592Z,7.70
2022-10-22T20:01:17.714Z,7.70
2022-10-22T20:03:45.251Z,7.70
2022-10-22T20:06:16.009Z,7.60
2022-10-22T20:08:43.139Z,7.60
2022-10-22T20:11:22.079Z,7.50
2022-10-22T20:13:51.432Z,7.50
2022-10-22T20:16:23.575Z,7.50
2022-10-22T20:18:51.846Z,7.40
2022-10-22T20:21:19.404Z,7.40
2022-10-22T20:23:51.763Z,7.30
2022-10-22T20:26:18.643Z,7.30
2022-10-22T20:28:47.042Z,7.20
2022-10-22T20:31:21.433Z,7.20
2022-10-22T20:33:50.852Z,7.20
2022-10-22T20:36:20.446Z,7.20
2022-10-22T20:38:48.486Z,7.20
2022-10-22T20:41:20.979Z,7.20
2022-10-22T20:43:49.686Z,7.20
2022-10-22T20:46:19.853Z,7.20
2022-10-22T20:48:47.133Z,7.20
2022-10-22T20:51:13.856Z,7.10
2022-10-22T20:53:40.820Z,7.10
2022-10-22T20:56:07.963Z,7.00
2022-10-22T20:58:35.624Z,7.00
2022-10-22T21:01:10.017Z,6.90
2022-10-22T21:03:38.549Z,6.90
2022-10-22T21:06:07.178Z,6.80
2022-10-22T21:08:33.895Z,6.70
2022-10-22T21:11:00.720Z,6.70
2022-10-22T21:13:27.644Z,6.60
2022-10-22T21:15:54.332Z,6.60
2022-10-22T21:18:21.071Z,6.50
2022-10-22T21:20:47.880Z,6.50
2022-10-22T21:23:14.642Z,6.40
2022-10-22T21:25:43.360Z,6.40
2022-10-22T21:28:11.455Z,6.30
2022-10-22T21:30:45.561Z,6.30
2022-10-22T21:33:12.530Z,6.30
2022-10-22T21:35:39.234Z,6.30
2022-10-22T21:38:07.881Z,6.30
2022-10-22T21:40:37.831Z,6.30
2022-10-22T21:43:04.905Z,6.30
2022-10-22T21:45:31.649Z,6.20
2022-10-22T21:47:58.662Z,6.20
2022-10-22T21:50:25.432Z,6.20
2022-10-22T21:52:52.141Z,6.10
2022-10-22T21:55:19.198Z,6.10
2022-10-22T21:57:45.934Z,6.10
2022-10-22T22:00:15.209Z,6.00
2022-10-22T22:02:45.248Z,6.00
2022-10-22T22:05:12.102Z,6.00
2022-10-22T22:07:39.373Z,5.90
2022-10-22T22:10:07.027Z,5.90
2022-10-22T22:12:33.756Z,5.90
2022-10-22T22:15:00.527Z,5.90
2022-10-22T22:17:27.557Z,5.90
2022-10-22T22:19:56.918Z,5.90
2022-10-22T22:22:23.805Z,5.90
2022-10-22T22:24:50.895Z,5.90
2022-10-22T22:27:17.732Z,5.90
2022-10-22T22:29:44.578Z,5.80
2022-10-22T22:32:17.334Z,5.80
2022-10-22T22:34:44.187Z,5.80
2022-10-22T22:37:13.742Z,5.80
2022-10-22T22:39:43.207Z,5.80
2022-10-22T22:42:10.269Z,5.70
2022-10-22T22:44:38.485Z,5.70
2022-10-22T22:47:05.279Z,5.70
2022-10-22T22:49:32.275Z,5.70
2022-10-22T22:51:59.337Z,5.70
2022-10-22T22:54:26.509Z,5.70
2022-10-22T22:56:53.280Z,5.70
2022-10-22T22:59:20.052Z,5.80
2022-10-22T23:01:49.995Z,5.80
2022-10-22T23:04:22.919Z,5.80
2022-10-22T23:06:50.576Z,5.80
2022-10-22T23:11:48.283Z,5.80
2022-10-22T23:14:17.120Z,5.90
2022-10-22T23:16:50.254Z,5.90
2022-10-22T23:19:19.658Z,5.90
2022-10-22T23:21:52.523Z,5.80
2022-10-22T23:24:26.920Z,5.90
2022-10-22T23:26:55.403Z,5.90
2022-10-22T23:29:31.264Z,5.90
2022-10-22T23:32:02.740Z,5.80
2022-10-22T23:34:30.708Z,5.80
2022-10-22T23:36:58.903Z,5.80
2022-10-22T23:39:30.658Z,5.80
2022-10-22T23:41:58.137Z,5.70
2022-10-22T23:44:25.735Z,5.70
2022-10-22T23:46:54.708Z,5.70
2022-10-22T23:49:21.575Z,5.70
2022-10-22T23:51:48.388Z,5.60
2022-10-22T23:54:18.362Z,5.70
2022-10-22T23:56:45.511Z,5.70
